KCLE

Cleveland-Hopkins International Airport

Cleveland, Ohio, USA
METAR KCLE 181251Z 36007KT 10SM OVC026 00/M06 A3024 RMK AO2 SLP248 T00001056
Observed Flight Rules
Dec-18 @ 12:51 UTC (16 minutes ago) Marginal Visual Flight Rules
Wind Visibility Clouds
360° at 7 knots 10 miles
  • Overcast at 2,600' AGL
Temperatures Readings
Current 0°C / 32°F
Dewpoint -6°C / 21°F
Humidity 64%
Altimeter 30.24" Hg
Pressure 1024.8 hPa
Elevation 233
METAR KCLE 181251Z 36007KT 10SM OVC026 00/M06 A3024 RMK AO2 SLP248 T00001056
Observed Flight Rules
Dec-18 @ 12:51 UTC
(16 minutes ago)
MVFR
Wind Visibility
360° at 7 knots 10 miles
Clouds
  • Overcast at 2,600' AGL
Temperature Dewpoint
0°C / 32°F -6°C / 21°F
Humidity Altimeter Pressure
64% 30.24" Hg 1024.8 hPa